createdAt,value
2022-08-14T00:01:59.308Z,100219.63
2022-08-14T00:04:34.410Z,100220.91
2022-08-14T00:07:04.726Z,100222.75
2022-08-14T00:09:39.987Z,100218.44
2022-08-14T00:12:23.847Z,100222.63
2022-08-14T00:14:55.008Z,100216.16
2022-08-14T00:17:23.061Z,100221.69
2022-08-14T00:19:52.247Z,100222.13
2022-08-14T00:22:44.371Z,100219.41
2022-08-14T00:25:11.050Z,100233.16
2022-08-14T00:27:39.130Z,100240.44
2022-08-14T00:30:10.961Z,100246.06
2022-08-14T00:32:50.610Z,100258.63
2022-08-14T00:36:00.777Z,100279.06
2022-08-14T00:38:13.723Z,100291.59
2022-08-14T00:40:46.175Z,100299.06
2022-08-14T00:43:14.998Z,100306.09
2022-08-14T00:45:43.316Z,100296.06
2022-08-14T00:48:34.406Z,100290.25
2022-08-14T00:51:06.686Z,100293.66
2022-08-14T00:53:35.099Z,100298.53
2022-08-14T00:56:06.875Z,100299.66
2022-08-14T00:58:35.794Z,100291.97
2022-08-14T01:01:14.498Z,100277.22
2022-08-14T01:03:45.544Z,100276.16
2022-08-14T01:06:18.882Z,100261.81
2022-08-14T01:08:57.907Z,100265.31
2022-08-14T01:11:35.397Z,100265.00
2022-08-14T01:14:25.322Z,100250.75
2022-08-14T01:16:55.601Z,100243.41
2022-08-14T01:19:41.560Z,100258.50
2022-08-14T01:22:12.400Z,100237.50
2022-08-14T01:24:43.393Z,100218.41
2022-08-14T01:27:17.462Z,100207.91
2022-08-14T01:29:59.423Z,100204.44
2022-08-14T01:32:31.467Z,100190.06
2022-08-14T01:35:18.013Z,100200.94
2022-08-14T01:37:56.428Z,100222.00
2022-08-14T01:40:25.537Z,100212.81
2022-08-14T01:43:02.674Z,100202.78
2022-08-14T01:45:31.505Z,100189.88
2022-08-14T01:48:13.355Z,100201.53
2022-08-14T01:50:42.686Z,100213.72
2022-08-14T01:53:13.649Z,100205.44
2022-08-14T01:55:42.788Z,100198.97
2022-08-14T01:58:19.015Z,100194.41
2022-08-14T02:00:54.801Z,100212.81
2022-08-14T02:03:24.479Z,100228.84
2022-08-14T02:06:04.162Z,100244.13
2022-08-14T02:08:53.438Z,100266.13
2022-08-14T02:11:24.245Z,100290.19
2022-08-14T02:13:59.616Z,100290.59
2022-08-14T02:16:39.079Z,100303.50
2022-08-14T02:19:10.253Z,100329.31
2022-08-14T02:21:47.009Z,100363.81
2022-08-14T02:24:38.807Z,100364.97
2022-08-14T02:28:25.235Z,100340.03
2022-08-14T02:30:01.106Z,100331.66
2022-08-14T02:32:37.176Z,100345.94
2022-08-14T02:35:10.224Z,100328.78
2022-08-14T02:37:47.540Z,100332.53
2022-08-14T02:40:18.976Z,100334.06
2022-08-14T02:42:54.803Z,100320.00
2022-08-14T02:45:33.327Z,100317.41
2022-08-14T02:48:10.620Z,100317.41
2022-08-14T02:50:55.397Z,100325.88
2022-08-14T02:53:23.173Z,100318.13
2022-08-14T02:55:52.825Z,100309.44
2022-08-14T02:58:30.681Z,100313.41
2022-08-14T03:00:59.198Z,100307.09
2022-08-14T03:03:27.157Z,100299.75
2022-08-14T03:05:55.560Z,100302.31
2022-08-14T03:08:23.438Z,100308.13
2022-08-14T03:10:55.158Z,100295.63
2022-08-14T03:13:25.324Z,100301.53
2022-08-14T03:15:55.511Z,100309.38
2022-08-14T03:18:31.232Z,100308.56
2022-08-14T03:21:00.997Z,100304.34
2022-08-14T03:23:36.631Z,100311.28
2022-08-14T03:26:13.115Z,100314.00
2022-08-14T03:28:48.569Z,100319.78
2022-08-14T03:31:24.418Z,100329.22
2022-08-14T03:33:56.841Z,100335.75
2022-08-14T03:37:28.856Z,100323.78
2022-08-14T03:39:22.717Z,100309.13
2022-08-14T03:41:55.875Z,100294.38
2022-08-14T03:45:25.325Z,100290.38
2022-08-14T03:47:15.147Z,100285.44
2022-08-14T03:49:43.924Z,100272.34
2022-08-14T03:52:28.003Z,100261.03
2022-08-14T03:55:01.305Z,100249.75
2022-08-14T03:57:32.742Z,100249.00
2022-08-14T04:00:04.006Z,100247.47
2022-08-14T04:02:37.544Z,100242.50
2022-08-14T04:05:12.634Z,100227.41
2022-08-14T04:07:50.012Z,100223.66
2022-08-14T04:10:32.112Z,100212.19
2022-08-14T04:13:03.656Z,100207.28
2022-08-14T04:15:56.353Z,100192.75
2022-08-14T04:18:21.684Z,100183.63
2022-08-14T04:20:54.433Z,100179.78
2022-08-14T04:23:29.584Z,100186.16
2022-08-14T04:26:01.582Z,100181.41
2022-08-14T04:29:08.308Z,100172.31
2022-08-14T04:31:34.587Z,100162.13
2022-08-14T04:34:09.971Z,100160.78
2022-08-14T04:36:59.063Z,100154.50
2022-08-14T04:39:46.822Z,100167.59
2022-08-14T04:42:32.539Z,100160.91
2022-08-14T04:45:01.691Z,100167.31
2022-08-14T04:47:47.061Z,100171.72
2022-08-14T04:50:33.725Z,100165.25
2022-08-14T04:53:05.837Z,100186.31
2022-08-14T04:55:34.410Z,100182.72
2022-08-14T04:58:02.243Z,100204.72
2022-08-14T05:00:31.822Z,100229.09
2022-08-14T05:03:03.111Z,100224.31
2022-08-14T05:05:35.793Z,100216.09
2022-08-14T05:08:09.751Z,100224.59
2022-08-14T05:10:42.162Z,100230.69
2022-08-14T05:13:24.631Z,100226.47
2022-08-14T05:16:02.746Z,100229.69
2022-08-14T05:19:16.946Z,100230.94
2022-08-14T05:21:58.152Z,100238.38
2022-08-14T05:24:17.721Z,100234.47
2022-08-14T05:26:47.259Z,100228.97
2022-08-14T05:29:16.245Z,100216.53
2022-08-14T05:31:45.333Z,100216.16
2022-08-14T05:34:13.646Z,100213.31
2022-08-14T05:36:44.009Z,100218.81
2022-08-14T05:39:26.778Z,100225.03
2022-08-14T05:41:56.679Z,100223.00
2022-08-14T05:44:29.152Z,100217.50
2022-08-14T05:46:59.266Z,100220.59
2022-08-14T05:49:33.203Z,100218.31
2022-08-14T05:52:02.687Z,100217.19
2022-08-14T05:54:35.402Z,100219.09
2022-08-14T05:57:03.744Z,100203.03
2022-08-14T05:59:36.839Z,100198.66
2022-08-14T06:02:10.070Z,100186.03
2022-08-14T06:04:38.518Z,100176.22
2022-08-14T06:07:06.781Z,100170.41
2022-08-14T06:09:35.702Z,100171.94
2022-08-14T06:12:09.027Z,100174.03
2022-08-14T06:14:36.847Z,100175.09
2022-08-14T06:17:04.984Z,100164.22
2022-08-14T06:19:34.278Z,100166.31
2022-08-14T06:22:02.229Z,100140.63
2022-08-14T06:24:35.069Z,100132.28
2022-08-14T06:27:06.030Z,100126.84
2022-08-14T06:29:35.224Z,100134.50
2022-08-14T06:32:38.477Z,100115.75
2022-08-14T06:35:03.291Z,100106.03
2022-08-14T06:37:44.894Z,100093.91
2022-08-14T06:40:26.870Z,100094.56
2022-08-14T06:43:00.236Z,100084.34
2022-08-14T06:45:31.407Z,100081.16
2022-08-14T06:47:59.373Z,100090.63
2022-08-14T06:50:30.411Z,100082.19
2022-08-14T06:52:59.198Z,100063.25
2022-08-14T06:55:28.126Z,100073.53
2022-08-14T06:57:58.207Z,100068.50
2022-08-14T07:00:30.541Z,100058.31
2022-08-14T07:03:17.095Z,100070.56
2022-08-14T07:05:57.735Z,100063.69
2022-08-14T07:08:29.769Z,100055.03
2022-08-14T07:11:01.605Z,100057.38
2022-08-14T07:13:30.697Z,100045.06
2022-08-14T07:16:00.860Z,100039.41
2022-08-14T07:18:35.525Z,100035.59
2022-08-14T07:21:06.546Z,100046.53
2022-08-14T07:23:39.974Z,100047.44
2022-08-14T07:26:10.243Z,100053.25
2022-08-14T07:28:43.183Z,100065.84
2022-08-14T07:31:13.608Z,100065.50
2022-08-14T07:33:50.514Z,100072.63
2022-08-14T07:36:26.507Z,100081.44
2022-08-14T07:38:57.600Z,100083.88
2022-08-14T07:41:25.380Z,100084.41
2022-08-14T07:44:29.651Z,100087.13
2022-08-14T07:46:49.108Z,100086.34
2022-08-14T07:49:18.330Z,100100.25
2022-08-14T07:51:49.311Z,100100.88
2022-08-14T07:54:23.410Z,100101.72
2022-08-14T07:56:58.092Z,100101.38
2022-08-14T07:59:42.601Z,100105.59
2022-08-14T08:02:17.436Z,100104.94
2022-08-14T08:04:54.135Z,100111.03
2022-08-14T08:07:29.592Z,100107.97
2022-08-14T08:09:59.891Z,100106.66
2022-08-14T08:12:32.108Z,100113.63
2022-08-14T08:15:03.052Z,100135.75
2022-08-14T08:17:42.717Z,100138.72
2022-08-14T08:20:23.434Z,100153.44
2022-08-14T08:23:00.592Z,100149.63
2022-08-14T08:25:39.514Z,100152.53
2022-08-14T08:30:51.490Z,100144.69
2022-08-14T08:33:20.279Z,100141.34
2022-08-14T08:35:50.430Z,100147.13
2022-08-14T08:39:16.598Z,100141.03
2022-08-14T08:41:11.852Z,100143.50
2022-08-14T08:43:46.069Z,100153.03
2022-08-14T08:46:23.559Z,100148.81
2022-08-14T08:51:30.575Z,100148.34
2022-08-14T08:54:02.413Z,100162.44
2022-08-14T08:56:39.804Z,100170.94
2022-08-14T08:59:20.975Z,100176.84
2022-08-14T09:01:56.381Z,100154.13
2022-08-14T09:04:27.174Z,100138.97
2022-08-14T09:07:09.519Z,100141.53
2022-08-14T09:09:54.533Z,100141.25
2022-08-14T09:12:31.800Z,100140.53
2022-08-14T09:15:01.105Z,100139.72
2022-08-14T09:17:29.741Z,100139.88
2022-08-14T09:20:02.278Z,100154.69
2022-08-14T09:22:35.742Z,100161.97
2022-08-14T09:25:19.489Z,100160.25
2022-08-14T09:27:48.310Z,100159.22
2022-08-14T09:30:32.839Z,100156.81
2022-08-14T09:33:56.052Z,100157.38
2022-08-14T09:36:47.228Z,100162.44
2022-08-14T09:39:31.763Z,100174.88
2022-08-14T09:42:33.312Z,100175.22
2022-08-14T09:45:15.266Z,100175.38
2022-08-14T09:47:49.158Z,100178.97
2022-08-14T09:50:22.130Z,100186.81
2022-08-14T09:53:02.653Z,100189.00
2022-08-14T09:55:41.273Z,100187.81
2022-08-14T09:58:14.883Z,100190.72
2022-08-14T10:00:49.669Z,100196.31
2022-08-14T10:03:30.273Z,100191.06
2022-08-14T10:06:09.598Z,100190.38
2022-08-14T10:08:50.981Z,100192.25
2022-08-14T10:11:23.485Z,100201.25
2022-08-14T10:13:55.788Z,100198.88
2022-08-14T10:16:27.328Z,100198.53
2022-08-14T10:19:07.562Z,100200.75
2022-08-14T10:21:58.691Z,100207.81
2022-08-14T10:24:31.379Z,100196.25
2022-08-14T10:27:06.513Z,100203.28
2022-08-14T10:29:38.354Z,100212.03
2022-08-14T10:32:17.825Z,100203.94
2022-08-14T10:35:13.560Z,100199.97
2022-08-14T10:37:46.629Z,100196.72
2022-08-14T10:40:37.456Z,100197.94
2022-08-14T10:43:05.844Z,100195.59
2022-08-14T10:45:46.258Z,100195.13
2022-08-14T10:48:24.472Z,100196.31
2022-08-14T10:51:08.365Z,100192.53
2022-08-14T10:53:39.886Z,100190.19
2022-08-14T10:56:21.767Z,100183.22
2022-08-14T10:59:02.794Z,100187.75
2022-08-14T11:01:40.925Z,100190.44
2022-08-14T11:04:26.156Z,100181.97
2022-08-14T11:06:56.780Z,100184.38
2022-08-14T11:09:26.642Z,100185.06
2022-08-14T11:12:34.676Z,100182.88
2022-08-14T11:14:59.378Z,100191.44
2022-08-14T11:17:31.798Z,100181.97
2022-08-14T11:20:02.549Z,100187.53
2022-08-14T11:22:56.130Z,100185.69
2022-08-14T11:25:23.515Z,100184.03
2022-08-14T11:27:53.414Z,100186.38
2022-08-14T11:30:50.526Z,100192.00
2022-08-14T11:33:14.065Z,100193.19
2022-08-14T11:35:49.708Z,100189.47
2022-08-14T11:38:20.085Z,100187.97
2022-08-14T11:40:48.687Z,100187.53
2022-08-14T11:43:16.842Z,100186.31
2022-08-14T11:45:48.305Z,100185.38
2022-08-14T11:49:04.216Z,100187.41
2022-08-14T11:51:14.882Z,100196.38
2022-08-14T11:53:45.712Z,100196.50
2022-08-14T11:56:13.907Z,100188.56
2022-08-14T11:58:42.330Z,100191.66
2022-08-14T12:01:10.827Z,100195.78
2022-08-14T12:03:46.616Z,100184.00
2022-08-14T12:06:29.185Z,100189.66
2022-08-14T12:09:08.820Z,100197.84
2022-08-14T12:11:47.461Z,100197.22
2022-08-14T12:14:34.773Z,100193.91
2022-08-14T12:17:12.054Z,100172.63
2022-08-14T12:19:51.596Z,100183.59
2022-08-14T12:22:34.428Z,100183.34
2022-08-14T12:25:06.055Z,100191.19
2022-08-14T12:27:53.087Z,100192.25
2022-08-14T12:30:39.710Z,100184.63
2022-08-14T12:33:23.812Z,100192.03
2022-08-14T12:35:57.486Z,100194.63
2022-08-14T12:38:38.260Z,100197.81
2022-08-14T12:41:11.372Z,100193.50
2022-08-14T12:43:51.479Z,100188.06
2022-08-14T12:46:28.906Z,100195.53
2022-08-14T12:48:58.490Z,100197.75
2022-08-14T12:51:30.639Z,100194.72
2022-08-14T12:54:00.201Z,100192.56
2022-08-14T12:56:33.080Z,100190.94
2022-08-14T12:59:01.494Z,100186.16
2022-08-14T13:01:31.875Z,100185.31
2022-08-14T13:04:21.802Z,100176.69
2022-08-14T13:06:53.817Z,100170.59
2022-08-14T13:09:27.907Z,100181.41
2022-08-14T13:12:32.043Z,100174.09
2022-08-14T13:14:57.785Z,100166.66
2022-08-14T13:17:26.892Z,100158.75
2022-08-14T13:19:57.522Z,100152.34
2022-08-14T13:22:33.386Z,100149.56
2022-08-14T13:25:05.284Z,100141.81
2022-08-14T13:27:39.255Z,100148.63
2022-08-14T13:30:10.835Z,100142.69
2022-08-14T13:32:49.353Z,100140.66
2022-08-14T13:35:19.161Z,100141.72
2022-08-14T13:37:49.854Z,100153.41
2022-08-14T13:40:26.369Z,100145.91
2022-08-14T13:42:57.297Z,100138.72
2022-08-14T13:45:34.026Z,100139.31
2022-08-14T13:48:18.448Z,100142.44
2022-08-14T13:51:04.170Z,100141.44
2022-08-14T13:53:41.338Z,100134.81
2022-08-14T13:56:14.609Z,100127.16
2022-08-14T13:58:47.094Z,100129.38
2022-08-14T14:01:19.048Z,100125.06
2022-08-14T14:03:51.426Z,100112.47
2022-08-14T14:06:24.533Z,100123.84
2022-08-14T14:08:58.984Z,100117.63
2022-08-14T14:11:29.815Z,100123.06
2022-08-14T14:13:59.470Z,100119.66
2022-08-14T14:16:31.023Z,100115.47
2022-08-14T14:19:08.812Z,100111.34
2022-08-14T14:21:37.489Z,100113.31
2022-08-14T14:24:07.448Z,100107.25
2022-08-14T14:26:35.909Z,100098.81
2022-08-14T14:29:04.826Z,100105.56
2022-08-14T14:31:32.666Z,100103.22
2022-08-14T14:34:07.584Z,100107.03
2022-08-14T14:36:50.206Z,100106.28
2022-08-14T14:39:25.416Z,100109.34
2022-08-14T14:41:57.546Z,100103.63
2022-08-14T14:44:28.665Z,100105.16
2022-08-14T14:46:58.268Z,100102.53
2022-08-14T14:49:31.680Z,100100.78
2022-08-14T14:52:27.247Z,100096.66
2022-08-14T14:54:58.819Z,100091.91
2022-08-14T14:57:34.840Z,100094.56
2022-08-14T15:00:06.362Z,100083.50
2022-08-14T15:02:41.288Z,100080.16
2022-08-14T15:05:11.401Z,100079.84
2022-08-14T15:07:40.899Z,100078.59
2022-08-14T15:10:27.964Z,100080.06
2022-08-14T15:13:04.395Z,100072.78
2022-08-14T15:15:37.492Z,100074.66
2022-08-14T15:18:09.882Z,100075.75
2022-08-14T15:20:55.233Z,100068.28
2022-08-14T15:23:24.511Z,100080.09
2022-08-14T15:25:53.602Z,100069.34
2022-08-14T15:28:22.100Z,100072.91
2022-08-14T15:30:58.924Z,100069.78
2022-08-14T15:34:01.037Z,100069.31
2022-08-14T15:36:35.183Z,100070.84
2022-08-14T15:39:03.027Z,100079.25
2022-08-14T15:41:41.203Z,100077.34
2022-08-14T15:44:24.714Z,100077.88
2022-08-14T15:46:54.538Z,100076.50
2022-08-14T15:49:24.272Z,100086.16
2022-08-14T15:51:52.129Z,100084.19
2022-08-14T15:54:21.806Z,100080.72
2022-08-14T15:56:58.754Z,100069.53
2022-08-14T15:59:27.416Z,100076.69
2022-08-14T16:01:57.170Z,100079.25
2022-08-14T16:04:25.190Z,100068.78
2022-08-14T16:06:55.427Z,100074.03
2022-08-14T16:09:23.989Z,100077.13
2022-08-14T16:11:53.975Z,100074.78
2022-08-14T16:14:24.337Z,100071.50
2022-08-14T16:16:59.688Z,100077.78
2022-08-14T16:19:31.005Z,100085.84
2022-08-14T16:22:57.209Z,100080.44
2022-08-14T16:24:59.650Z,100071.00
2022-08-14T16:27:39.343Z,100068.81
2022-08-14T16:30:20.489Z,100075.34
2022-08-14T16:32:56.836Z,100078.97
2022-08-14T16:35:42.264Z,100077.66
2022-08-14T16:38:35.793Z,100082.28
2022-08-14T16:41:22.949Z,100075.16
2022-08-14T16:43:53.835Z,100083.47
2022-08-14T16:46:32.628Z,100074.13
2022-08-14T16:49:01.057Z,100071.94
2022-08-14T16:51:31.102Z,100078.53
2022-08-14T16:54:34.013Z,100077.38
2022-08-14T16:56:54.438Z,100080.94
2022-08-14T16:59:30.687Z,100076.19
2022-08-14T17:02:13.201Z,100073.13
2022-08-14T17:04:49.089Z,100070.59
2022-08-14T17:07:17.092Z,100066.28
2022-08-14T17:09:48.419Z,100069.66
2022-08-14T17:12:28.658Z,100075.50
2022-08-14T17:15:10.635Z,100076.50
2022-08-14T17:17:56.381Z,100079.88
2022-08-14T17:20:54.783Z,100070.84
2022-08-14T17:23:15.059Z,100058.25
2022-08-14T17:25:50.807Z,100067.44
2022-08-14T17:28:51.181Z,100063.81
2022-08-14T17:31:09.223Z,100063.09
2022-08-14T17:33:40.922Z,100063.19
2022-08-14T17:36:21.580Z,100068.81
2022-08-14T17:39:06.776Z,100057.91
2022-08-14T17:41:43.630Z,100057.41
2022-08-14T17:44:33.993Z,100059.56
2022-08-14T17:47:13.502Z,100060.44
2022-08-14T17:49:52.023Z,100052.00
2022-08-14T17:52:36.406Z,100055.28
2022-08-14T17:56:01.131Z,100056.72
2022-08-14T17:58:01.536Z,100047.28
2022-08-14T18:00:51.191Z,100045.22
2022-08-14T18:03:52.394Z,100043.41
2022-08-14T18:06:39.551Z,100047.19
2022-08-14T18:08:59.821Z,100042.50
2022-08-14T18:11:43.539Z,100047.94
2022-08-14T18:14:31.450Z,100042.84
2022-08-14T18:17:02.176Z,100047.56
2022-08-14T18:19:34.548Z,100053.72
2022-08-14T18:22:31.085Z,100048.94
2022-08-14T18:24:56.269Z,100047.25
2022-08-14T18:27:29.454Z,100051.38
2022-08-14T18:29:59.386Z,100040.88
2022-08-14T18:32:47.157Z,100052.34
2022-08-14T18:35:36.601Z,100046.63
2022-08-14T18:38:25.479Z,100049.13
2022-08-14T18:40:55.966Z,100053.50
2022-08-14T18:43:44.208Z,100059.78
2022-08-14T18:47:01.003Z,100062.94
2022-08-14T18:49:15.454Z,100061.38
2022-08-14T18:51:45.371Z,100055.34
2022-08-14T18:54:32.938Z,100072.44
2022-08-14T18:57:02.558Z,100070.84
2022-08-14T18:59:36.444Z,100072.94
2022-08-14T19:02:42.838Z,100083.50
2022-08-14T19:05:11.628Z,100080.09
2022-08-14T19:07:40.832Z,100087.50
2022-08-14T19:10:16.999Z,100089.56
2022-08-14T19:13:11.795Z,100086.56
2022-08-14T19:15:42.949Z,100097.09
2022-08-14T19:18:27.960Z,100089.00
2022-08-14T19:20:58.151Z,100095.38
2022-08-14T19:23:43.265Z,100091.28
2022-08-14T19:26:37.008Z,100101.13
2022-08-14T19:29:23.445Z,100097.88
2022-08-14T19:31:55.479Z,100096.69
2022-08-14T19:34:48.256Z,100096.50
2022-08-14T19:37:45.850Z,100106.03
2022-08-14T19:40:15.234Z,100105.75
2022-08-14T19:42:49.804Z,100110.63
2022-08-14T19:45:18.636Z,100117.13
2022-08-14T19:47:49.996Z,100115.66
2022-08-14T19:50:37.915Z,100114.69
2022-08-14T19:53:12.047Z,100114.81
2022-08-14T19:55:57.410Z,100114.34
2022-08-14T19:58:55.252Z,100115.34
2022-08-14T20:01:37.031Z,100110.75
2022-08-14T20:04:45.295Z,100112.31
2022-08-14T20:06:57.547Z,100098.94
2022-08-14T20:11:03.586Z,100104.47
2022-08-14T20:12:28.803Z,100111.25
2022-08-14T20:15:08.888Z,100116.53
2022-08-14T20:17:40.350Z,100121.75
2022-08-14T20:20:30.647Z,100118.34
2022-08-14T20:23:03.043Z,100126.44
2022-08-14T20:25:55.850Z,100131.38
2022-08-14T20:28:30.686Z,100126.88
2022-08-14T20:31:15.918Z,100119.09
2022-08-14T20:34:06.051Z,100126.94
2022-08-14T20:36:39.274Z,100126.59
2022-08-14T20:41:51.204Z,100132.00
2022-08-14T20:44:40.218Z,100125.22
2022-08-14T20:47:16.162Z,100120.66
2022-08-14T20:49:44.631Z,100119.47
2022-08-14T20:52:18.863Z,100118.78
2022-08-14T20:54:50.640Z,100124.22
2022-08-14T20:57:19.013Z,100118.75
2022-08-14T20:59:51.365Z,100121.41
2022-08-14T21:02:38.574Z,100119.38
2022-08-14T21:05:20.509Z,100119.69
2022-08-14T21:07:50.702Z,100122.97
2022-08-14T21:10:33.384Z,100119.66
2022-08-14T21:14:08.672Z,100115.16
2022-08-14T21:15:57.329Z,100126.00
2022-08-14T21:18:29.413Z,100127.59
2022-08-14T21:20:58.825Z,100128.63
2022-08-14T21:23:32.439Z,100123.13
2022-08-14T21:26:03.676Z,100126.22
2022-08-14T21:28:35.051Z,100124.75
2022-08-14T21:31:04.389Z,100125.56
2022-08-14T21:33:36.323Z,100131.69
2022-08-14T21:36:07.815Z,100123.81
2022-08-14T21:38:37.331Z,100125.91
2022-08-14T21:41:42.735Z,100125.63
2022-08-14T21:44:18.372Z,100119.25
2022-08-14T21:46:53.310Z,100114.69
2022-08-14T21:49:25.518Z,100120.63
2022-08-14T21:52:50.677Z,100118.91
2022-08-14T21:54:59.794Z,100118.63
2022-08-14T21:57:55.997Z,100115.47
2022-08-14T22:00:30.430Z,100115.53
2022-08-14T22:03:05.941Z,100114.03
2022-08-14T22:05:35.278Z,100113.28
2022-08-14T22:08:04.277Z,100106.84
2022-08-14T22:10:34.930Z,100108.06
2022-08-14T22:13:03.129Z,100106.69
2022-08-14T22:15:33.741Z,100102.75
2022-08-14T22:18:04.074Z,100102.97
2022-08-14T22:20:33.170Z,100101.94
2022-08-14T22:23:05.598Z,100096.16
2022-08-14T22:25:41.178Z,100091.69
2022-08-14T22:28:11.958Z,100090.75
2022-08-14T22:30:41.721Z,100086.81
2022-08-14T22:33:13.221Z,100092.78
2022-08-14T22:35:42.758Z,100097.41
2022-08-14T22:38:37.846Z,100092.47
2022-08-14T22:41:25.263Z,100089.66
2022-08-14T22:43:51.087Z,100083.78
2022-08-14T22:46:20.288Z,100090.13
2022-08-14T22:48:49.584Z,100091.75
2022-08-14T22:51:21.604Z,100090.53
2022-08-14T22:53:53.093Z,100093.72
2022-08-14T22:56:29.474Z,100097.19
2022-08-14T22:59:00.169Z,100087.59
2022-08-14T23:01:57.172Z,100087.81
2022-08-14T23:04:34.123Z,100092.50
2022-08-14T23:07:21.640Z,100084.44
2022-08-14T23:09:56.510Z,100089.25
2022-08-14T23:12:29.510Z,100091.13
2022-08-14T23:14:59.228Z,100091.97
2022-08-14T23:17:28.244Z,100086.66
2022-08-14T23:20:18.783Z,100082.94
2022-08-14T23:22:50.512Z,100086.34
2022-08-14T23:25:45.805Z,100078.06
2022-08-14T23:28:33.575Z,100084.28
2022-08-14T23:31:05.705Z,100075.91
2022-08-14T23:33:34.838Z,100077.56
2022-08-14T23:36:04.967Z,100081.47
2022-08-14T23:38:53.518Z,100071.56
2022-08-14T23:41:22.734Z,100063.50
2022-08-14T23:43:54.510Z,100068.84
2022-08-14T23:46:34.699Z,100071.78
2022-08-14T23:49:03.051Z,100067.97
2022-08-14T23:51:36.385Z,100065.50
2022-08-14T23:54:48.044Z,100063.31
2022-08-14T23:56:59.996Z,100064.72
2022-08-14T23:59:31.632Z,100068.38
